Time;durP1;ratioP1;P1;durP2;ratioP2;P2;SDS_P1;SDS_P2;PMS_P1;PMS_P2;Temp;Humidity;BMP_temperature;BMP_pressure;BME280_temperature;BME280_humidity;BME280_pressure;Samples;Min_cycle;Max_cycle;Signal;HPM_P1;HPM_P2
2021/05/26 00:00:56;;;;;;;3.10;2.90;;;18.00;99.90;;;;;;5015917;28;20026;-52
2021/05/26 00:03:23;;;;;;;3.78;3.47;;;17.90;99.70;;;;;;5015908;28;20084;-50
2021/05/26 00:05:51;;;;;;;3.60;3.30;;;17.90;99.90;;;;;;5016009;28;20014;-52
2021/05/26 00:08:32;;;;;;;5.03;3.85;;;17.80;99.90;;;;;;5015838;28;20021;-53
2021/05/26 00:11:01;;;;;;;4.35;3.60;;;17.80;99.90;;;;;;5015893;28;20547;-52
2021/05/26 00:13:29;;;;;;;6.07;3.83;;;18.00;99.90;;;;;;5016071;28;20108;-54
2021/05/26 00:15:57;;;;;;;3.60;3.35;;;18.00;99.90;;;;;;5015952;28;20034;-53
2021/05/26 00:18:24;;;;;;;3.20;3.10;;;17.90;99.40;;;;;;5015664;28;20084;-51
2021/05/26 00:20:53;;;;;;;3.00;2.80;;;17.90;99.50;;;;;;5015704;28;20018;-53
2021/05/26 00:23:22;;;;;;;3.83;2.97;;;17.90;99.40;;;;;;5015416;28;20022;-50
2021/05/26 00:25:49;;;;;;;3.30;3.10;;;17.80;99.40;;;;;;5015587;28;20097;-54
2021/05/26 00:28:17;;;;;;;3.70;3.40;;;18.00;99.80;;;;;;5015650;28;20030;-54
2021/05/26 00:30:48;;;;;;;7.40;3.78;;;18.10;99.90;;;;;;5015466;28;20028;-52
2021/05/26 00:33:17;;;;;;;3.35;2.90;;;18.30;99.90;;;;;;5015428;28;20535;-54
2021/05/26 00:35:44;;;;;;;3.67;3.15;;;18.30;99.50;;;;;;5015349;28;20133;-51
2021/05/26 00:38:12;;;;;;;4.47;3.30;;;18.30;99.90;;;;;;5015205;28;20402;-49
2021/05/26 00:40:40;;;;;;;4.35;3.25;;;18.40;99.10;;;;;;5015401;28;20105;-56
2021/05/26 00:43:08;;;;;;;3.40;3.10;;;18.50;99.70;;;;;;5015032;28;20544;-53
2021/05/26 00:45:37;;;;;;;4.18;3.40;;;18.60;99.40;;;;;;5015011;28;20111;-51
2021/05/26 00:48:04;;;;;;;4.43;3.20;;;18.80;98.50;;;;;;5015158;28;20034;-52
2021/05/26 00:50:35;;;;;;;3.67;3.38;;;18.70;99.00;;;;;;5015000;28;20470;-52
2021/05/26 00:53:06;;;;;;;;;;;18.90;98.90;;;;;;5015712;28;20026;-52
2021/05/26 00:55:35;;;;;;;3.83;3.35;;;18.90;98.80;;;;;;5015135;28;19995;-52
2021/05/26 00:58:03;;;;;;;3.88;3.00;;;19.00;98.50;;;;;;5014667;28;20026;-54
2021/05/26 01:00:32;;;;;;;3.45;3.15;;;18.90;98.00;;;;;;5014938;28;20483;-52
2021/05/26 01:02:59;;;;;;;3.50;3.20;;;18.90;97.70;;;;;;5014392;28;20026;-53
2021/05/26 01:05:28;;;;;;;3.15;2.85;;;18.70;97.90;;;;;;5015230;28;20018;-51
2021/05/26 01:07:55;;;;;;;3.45;2.78;;;18.80;97.70;;;;;;5014764;28;20112;-55
2021/05/26 01:10:25;;;;;;;3.25;2.58;;;18.80;98.00;;;;;;5014684;28;20108;-53
2021/05/26 01:12:53;;;;;;;3.60;3.30;;;18.70;97.80;;;;;;5014786;28;20389;-52
2021/05/26 01:15:22;;;;;;;3.72;3.03;;;18.80;98.10;;;;;;5014710;28;20269;-55
2021/05/26 01:17:50;;;;;;;3.13;2.80;;;19.00;98.40;;;;;;5014315;28;20076;-53
2021/05/26 01:20:26;;;;;;;4.43;3.03;;;19.10;97.80;;;;;;5014450;28;20049;-54
2021/05/26 01:22:57;;;;;;;4.05;3.65;;;19.20;98.10;;;;;;5014442;28;20034;-55
2021/05/26 01:25:24;;;;;;;;;;;19.40;97.50;;;;;;5015036;28;20431;-52
2021/05/26 01:27:51;;;;;;;3.65;3.15;;;19.30;97.00;;;;;;5014361;28;19906;-52
2021/05/26 01:30:19;;;;;;;3.92;3.63;;;19.40;97.10;;;;;;5014246;28;20512;-55
2021/05/26 01:32:49;;;;;;;3.22;3.00;;;19.50;97.30;;;;;;5014356;28;20053;-53
2021/05/26 01:35:18;;;;;;;5.28;4.13;;;19.60;97.70;;;;;;5014304;28;20041;-54
2021/05/26 01:37:47;;;;;;;3.33;3.13;;;19.60;97.20;;;;;;5014172;28;20022;-53
2021/05/26 01:40:17;;;;;;;3.30;3.10;;;19.60;96.40;;;;;;5014355;28;20029;-56
2021/05/26 01:42:45;;;;;;;3.00;2.80;;;19.40;96.60;;;;;;5014591;28;20030;-55
2021/05/26 01:45:15;;;;;;;3.92;3.70;;;19.30;96.70;;;;;;5014251;28;20062;-54
2021/05/26 01:47:44;;;;;;;3.20;3.00;;;19.40;96.80;;;;;;5014278;28;20477;-55
2021/05/26 01:50:21;;;;;;;3.63;3.45;;;19.50;97.60;;;;;;5014185;28;20450;-53
2021/05/26 01:52:52;;;;;;;3.50;3.30;;;19.60;97.10;;;;;;5013883;28;20030;-54
2021/05/26 01:55:20;;;;;;;3.78;3.45;;;19.70;96.80;;;;;;5014125;28;20017;-55
2021/05/26 01:57:47;;;;;;;4.95;3.47;;;19.80;97.60;;;;;;5013691;28;20456;-54
2021/05/26 02:00:16;;;;;;;3.75;3.45;;;20.00;97.20;;;;;;5014033;28;20046;-52
2021/05/26 02:02:44;;;;;;;3.40;3.10;;;19.80;96.90;;;;;;5013769;28;20022;-55
2021/05/26 02:05:12;;;;;;;2.67;2.58;;;19.90;97.00;;;;;;5013620;28;20033;-52
2021/05/26 02:07:40;;;;;;;3.33;2.60;;;20.00;96.10;;;;;;5013842;28;20406;-52
2021/05/26 02:10:10;;;;;;;3.20;3.00;;;19.90;96.20;;;;;;5013747;28;20572;-49
2021/05/26 02:12:39;;;;;;;2.58;2.47;;;19.90;96.70;;;;;;5013161;28;20026;-54
2021/05/26 02:15:12;;;;;;;2.75;2.55;;;20.10;95.90;;;;;;5013303;28;20033;-55
2021/05/26 02:17:39;;;;;;;3.20;2.40;;;20.10;94.50;;;;;;5013393;28;20396;-55
2021/05/26 02:20:09;;;;;;;2.92;2.60;;;20.20;94.50;;;;;;5013128;28;20105;-56
2021/05/26 02:22:36;;;;;;;3.60;2.22;;;20.10;94.20;;;;;;5013725;28;20026;-56
2021/05/26 02:25:04;;;;;;;3.92;2.35;;;20.20;94.40;;;;;;5013456;28;20073;-54
2021/05/26 02:27:31;;;;;;;2.80;2.50;;;20.20;93.80;;;;;;5013399;28;20080;-49
2021/05/26 02:29:59;;;;;;;2.28;2.13;;;20.10;93.60;;;;;;5013440;28;20049;-55
2021/05/26 02:32:27;;;;;;;2.67;2.55;;;20.10;93.10;;;;;;5013399;28;20056;-56
2021/05/26 02:34:54;;;;;;;2.90;2.70;;;20.20;93.40;;;;;;5013474;28;20509;-54
2021/05/26 02:37:21;;;;;;;3.08;2.88;;;20.50;93.40;;;;;;5013292;28;20381;-55
2021/05/26 02:39:48;;;;;;;3.03;2.80;;;20.50;92.80;;;;;;5013139;28;20026;-54
2021/05/26 02:42:16;;;;;;;2.80;2.60;;;20.50;93.50;;;;;;5013264;28;20018;-53
2021/05/26 02:44:43;;;;;;;2.67;2.47;;;20.50;92.80;;;;;;5013408;28;20022;-51
2021/05/26 02:47:10;;;;;;;2.78;2.58;;;20.40;93.10;;;;;;5013171;28;20029;-55
2021/05/26 02:49:38;;;;;;;2.65;2.40;;;20.30;93.30;;;;;;5013282;28;20489;-56
2021/05/26 02:52:05;;;;;;;2.70;2.60;;;20.40;93.10;;;;;;5013069;28;20399;-54
2021/05/26 02:54:33;;;;;;;2.88;2.67;;;20.30;92.20;;;;;;5013250;28;20117;-55
2021/05/26 02:57:00;;;;;;;2.78;2.67;;;20.20;92.30;;;;;;5012836;28;20034;-54
2021/05/26 02:59:27;;;;;;;2.90;2.70;;;20.40;92.00;;;;;;5012929;28;20049;-53
2021/05/26 03:01:55;;;;;;;3.00;2.80;;;20.40;90.30;;;;;;5012850;28;20030;-55
2021/05/26 03:04:22;;;;;;;2.55;2.33;;;20.40;91.20;;;;;;5012978;28;20030;-55
2021/05/26 03:06:49;;;;;;;2.60;2.40;;;20.40;91.70;;;;;;5012874;28;20049;-54
2021/05/26 03:09:17;;;;;;;3.03;2.80;;;20.50;91.70;;;;;;5012967;28;20101;-56
2021/05/26 03:11:44;;;;;;;4.00;2.70;;;20.40;91.40;;;;;;5012956;28;20033;-55
2021/05/26 03:14:11;;;;;;;3.75;2.67;;;20.40;91.70;;;;;;5013037;28;20037;-54
2021/05/26 03:16:39;;;;;;;3.05;2.83;;;20.40;91.50;;;;;;5013010;28;20424;-54
2021/05/26 03:19:06;;;;;;;2.50;2.40;;;20.50;93.20;;;;;;5012736;28;20451;-55
2021/05/26 03:21:34;;;;;;;2.88;2.70;;;20.70;91.60;;;;;;5012963;28;20097;-54
2021/05/26 03:24:02;;;;;;;2.55;2.35;;;20.60;90.60;;;;;;5012764;28;20030;-53
2021/05/26 03:26:29;;;;;;;3.13;2.42;;;20.40;91.00;;;;;;5016726;28;20498;-55
2021/05/26 03:28:57;;;;;;;2.58;2.40;;;20.50;90.80;;;;;;5016607;28;20030;-54
2021/05/26 03:31:24;;;;;;;2.60;2.50;;;20.30;90.10;;;;;;5016650;28;20029;-53
2021/05/26 03:33:52;;;;;;;3.20;2.50;;;20.30;90.90;;;;;;5016366;28;20109;-53
2021/05/26 03:36:19;;;;;;;2.30;2.20;;;20.40;90.60;;;;;;5016481;28;20026;-54
2021/05/26 03:38:46;;;;;;;3.03;2.25;;;20.20;90.70;;;;;;5016511;28;20426;-51
2021/05/26 03:41:14;;;;;;;2.70;2.50;;;20.60;91.30;;;;;;5016533;28;20014;-49
2021/05/26 03:43:41;;;;;;;2.45;2.10;;;20.50;90.60;;;;;;5016523;28;20022;-52
2021/05/26 03:46:08;;;;;;;3.40;2.40;;;20.60;90.70;;;;;;5016573;28;20095;-52
2021/05/26 03:48:35;;;;;;;2.42;2.22;;;20.70;91.10;;;;;;5016381;28;20022;-53
2021/05/26 03:51:04;;;;;;;2.40;2.20;;;20.60;90.30;;;;;;5016195;28;20090;-54
2021/05/26 03:53:31;;;;;;;3.20;3.03;;;20.70;90.40;;;;;;5016340;28;20030;-51
2021/05/26 03:55:59;;;;;;;2.95;2.70;;;20.70;90.80;;;;;;5016235;28;20054;-54
2021/05/26 03:58:26;;;;;;;2.70;2.55;;;20.60;90.30;;;;;;5015757;28;20072;-52
2021/05/26 04:00:54;;;;;;;3.00;2.80;;;20.60;89.40;;;;;;5016020;28;20486;-54
2021/05/26 04:03:21;;;;;;;2.42;2.33;;;20.50;90.30;;;;;;5016157;28;20052;-53
2021/05/26 04:05:49;;;;;;;2.75;2.17;;;20.50;88.70;;;;;;5016173;28;20370;-54
2021/05/26 04:08:16;;;;;;;2.60;2.50;;;20.40;88.00;;;;;;5015949;28;20445;-53
2021/05/26 04:10:43;;;;;;;2.83;2.50;;;20.60;90.10;;;;;;5015963;28;20028;-54
2021/05/26 04:13:10;;;;;;;2.50;2.30;;;20.60;88.60;;;;;;5015838;28;20021;-54
2021/05/26 04:15:38;;;;;;;3.08;2.60;;;20.50;88.80;;;;;;5015915;28;20483;-55
2021/05/26 04:18:08;;;;;;;2.63;2.50;;;20.50;89.60;;;;;;4998339;28;20030;-55
2021/05/26 04:20:36;;;;;;;3.88;3.22;;;20.60;88.60;;;;;;5015562;28;20033;-54
2021/05/26 04:23:03;;;;;;;2.53;2.33;;;20.80;89.80;;;;;;5015940;28;20014;-56
2021/05/26 04:25:31;;;;;;;2.83;2.63;;;20.80;88.30;;;;;;5015871;28;20037;-51
2021/05/26 04:27:59;;;;;;;3.03;2.83;;;20.80;86.00;;;;;;5015540;28;20432;-56
2021/05/26 04:30:26;;;;;;;2.95;2.20;;;20.80;88.10;;;;;;5015396;28;20061;-54
2021/05/26 04:32:54;;;;;;;3.47;2.55;;;20.80;88.00;;;;;;5015432;28;20034;-56
2021/05/26 04:35:21;;;;;;;2.20;2.10;;;20.80;85.80;;;;;;5015680;28;20022;-54
2021/05/26 04:37:48;;;;;;;2.10;1.90;;;20.90;87.10;;;;;;5014608;28;20018;-54
2021/05/26 04:40:16;;;;;;;2.33;2.20;;;20.70;84.90;;;;;;5015484;28;20018;-56
2021/05/26 04:42:45;;;;;;;2.28;2.03;;;20.70;86.40;;;;;;5015425;28;20030;-55
2021/05/26 04:45:13;;;;;;;3.92;2.10;;;20.70;85.30;;;;;;5015232;28;20105;-56
2021/05/26 04:47:41;;;;;;;2.10;2.00;;;20.70;84.00;;;;;;5015404;28;20057;-54
2021/05/26 04:50:09;;;;;;;2.15;1.95;;;20.60;83.60;;;;;;5015227;28;20548;-53
2021/05/26 04:52:36;;;;;;;3.42;2.17;;;20.60;83.30;;;;;;5015178;28;20037;-51
2021/05/26 04:55:04;;;;;;;2.53;1.92;;;20.70;85.20;;;;;;5015132;28;20391;-55
2021/05/26 04:57:31;;;;;;;2.13;2.00;;;20.60;84.20;;;;;;5015016;28;20386;-55
2021/05/26 04:59:59;;;;;;;4.88;2.15;;;20.60;83.80;;;;;;5015063;28;20086;-56
2021/05/26 05:02:26;;;;;;;2.00;1.90;;;20.60;86.70;;;;;;5014920;28;20126;-56
2021/05/26 05:04:54;;;;;;;3.05;2.40;;;20.50;84.00;;;;;;5014974;28;20026;-52
2021/05/26 05:07:21;;;;;;;2.20;2.00;;;20.50;84.90;;;;;;5015462;28;20030;-56
2021/05/26 05:09:48;;;;;;;2.70;2.50;;;20.50;85.20;;;;;;5014868;28;20033;-55
2021/05/26 05:12:16;;;;;;;2.75;2.17;;;20.50;85.70;;;;;;5014877;28;20026;-55
2021/05/26 05:14:43;;;;;;;2.55;2.20;;;20.50;85.70;;;;;;5014703;28;20081;-54
2021/05/26 05:17:10;;;;;;;2.97;2.70;;;20.50;85.80;;;;;;5014408;28;20395;-55
2021/05/26 05:19:37;;;;;;;2.40;2.30;;;20.40;84.90;;;;;;5014687;28;20026;-54
2021/05/26 05:22:05;;;;;;;2.80;2.20;;;20.40;84.80;;;;;;5014579;28;20084;-55
2021/05/26 05:24:32;;;;;;;2.20;2.05;;;20.40;83.70;;;;;;5014735;28;20014;-54
2021/05/26 05:26:59;;;;;;;2.20;2.00;;;20.30;84.80;;;;;;5014417;28;20022;-55
2021/05/26 05:29:27;;;;;;;3.25;2.28;;;20.30;84.00;;;;;;5014404;28;20026;-54
2021/05/26 05:31:54;;;;;;;2.55;1.80;;;20.20;85.50;;;;;;5014399;28;20014;-55
2021/05/26 05:34:21;;;;;;;1.90;1.80;;;20.20;84.50;;;;;;5014292;28;20133;-51
2021/05/26 05:36:49;;;;;;;2.30;2.10;;;20.20;84.50;;;;;;5014541;28;20026;-53
2021/05/26 05:39:17;;;;;;;2.40;2.28;;;20.00;84.00;;;;;;5014185;28;20029;-57
2021/05/26 05:41:45;;;;;;;2.60;2.40;;;20.00;84.10;;;;;;5014030;28;20406;-57
2021/05/26 05:44:13;;;;;;;2.55;2.20;;;20.00;84.50;;;;;;5014269;28;20014;-53
2021/05/26 05:46:40;;;;;;;2.42;2.22;;;20.00;84.20;;;;;;5014070;28;20033;-53
2021/05/26 05:49:07;;;;;;;2.70;2.30;;;20.00;85.80;;;;;;5013791;28;20493;-56
2021/05/26 05:51:35;;;;;;;2.50;2.40;;;19.90;85.90;;;;;;5013934;28;20478;-57
2021/05/26 05:54:02;;;;;;;2.50;2.40;;;19.80;86.50;;;;;;5013987;28;20026;-56
2021/05/26 05:56:29;;;;;;;5.00;2.10;;;19.70;87.10;;;;;;5013833;28;20068;-56
2021/05/26 05:58:57;;;;;;;2.88;2.40;;;19.60;86.40;;;;;;5013572;28;20050;-56
2021/05/26 06:01:24;;;;;;;2.63;2.40;;;19.50;87.70;;;;;;5013995;28;20025;-54
2021/05/26 06:03:51;;;;;;;2.88;2.45;;;19.40;87.80;;;;;;5013913;28;20037;-52
2021/05/26 06:06:18;;;;;;;3.13;2.90;;;19.30;87.50;;;;;;5013898;28;20014;-53
2021/05/26 06:08:46;;;;;;;2.80;2.60;;;19.20;87.60;;;;;;5013737;28;20032;-51
2021/05/26 06:11:13;;;;;;;2.83;2.63;;;19.10;88.60;;;;;;5013833;28;20505;-54
2021/05/26 06:13:44;;;;;;;2.72;2.50;;;19.10;89.30;;;;;;5013990;28;20080;-55
2021/05/26 06:16:12;;;;;;;5.80;2.45;;;19.00;89.80;;;;;;5013969;28;20025;-55
2021/05/26 06:18:39;;;;;;;3.03;2.53;;;18.90;88.60;;;;;;5013492;28;20076;-53
2021/05/26 06:21:06;;;;;;;3.38;2.97;;;18.90;88.80;;;;;;5013479;28;20041;-56
2021/05/26 06:23:34;;;;;;;2.88;2.60;;;18.70;88.70;;;;;;5013251;28;20025;-52
2021/05/26 06:26:02;;;;;;;4.28;3.30;;;18.60;90.20;;;;;;5013417;28;20394;-54
2021/05/26 06:28:30;;;;;;;3.92;2.65;;;18.50;89.50;;;;;;5013477;28;20029;-55
2021/05/26 06:30:57;;;;;;;2.50;2.30;;;18.40;89.60;;;;;;5013460;28;20034;-53
2021/05/26 06:33:26;;;;;;;2.75;2.55;;;18.40;90.00;;;;;;5013253;28;20506;-57
2021/05/26 06:35:53;;;;;;;2.80;2.60;;;18.30;90.10;;;;;;5014497;28;20022;-54
2021/05/26 06:38:21;;;;;;;3.25;2.70;;;18.20;90.50;;;;;;5013296;28;20069;-52
2021/05/26 06:40:48;;;;;;;3.92;2.95;;;18.20;90.40;;;;;;5013328;28;20049;-57
2021/05/26 06:43:15;;;;;;;3.13;2.65;;;18.10;90.60;;;;;;5013316;28;20064;-52
2021/05/26 06:45:42;;;;;;;2.80;2.60;;;18.00;90.50;;;;;;5013114;28;20022;-54
2021/05/26 06:48:10;;;;;;;4.18;2.97;;;18.00;90.40;;;;;;5013158;28;20034;-56
2021/05/26 06:50:37;;;;;;;3.45;2.78;;;17.90;90.80;;;;;;4995367;28;20036;-56
2021/05/26 06:53:05;;;;;;;3.45;3.10;;;17.80;91.40;;;;;;5012928;28;20033;-55
2021/05/26 06:55:32;;;;;;;4.53;3.20;;;17.50;91.80;;;;;;5012926;28;20076;-54
2021/05/26 06:58:00;;;;;;;3.08;2.88;;;17.40;91.70;;;;;;5012749;28;20438;-56
2021/05/26 07:00:29;;;;;;;3.00;2.80;;;17.50;91.20;;;;;;5012318;28;20022;-55
2021/05/26 07:02:56;;;;;;;3.50;3.15;;;17.50;91.50;;;;;;5012883;28;20106;-53
2021/05/26 07:05:24;;;;;;;4.07;2.90;;;17.40;91.40;;;;;;5012672;28;20022;-57
2021/05/26 07:07:51;;;;;;;3.45;3.17;;;17.40;91.30;;;;;;5012722;28;20032;-54
2021/05/26 07:10:19;;;;;;;4.13;3.00;;;17.30;92.00;;;;;;5012584;28;20118;-54
2021/05/26 07:12:48;;;;;;;3.30;2.90;;;17.20;91.80;;;;;;5012661;28;20403;-55
2021/05/26 07:15:16;;;;;;;3.25;2.80;;;17.00;91.70;;;;;;5012711;28;20037;-56
2021/05/26 07:17:43;;;;;;;3.95;2.90;;;17.10;91.70;;;;;;5012683;28;20044;-57
2021/05/26 07:20:11;;;;;;;4.53;2.75;;;17.10;91.70;;;;;;5012641;28;20014;-57
2021/05/26 07:22:39;;;;;;;3.42;2.70;;;16.90;91.80;;;;;;5012635;28;20101;-56
2021/05/26 07:25:07;;;;;;;3.92;3.00;;;17.10;91.10;;;;;;5012617;28;20056;-55
2021/05/26 07:27:34;;;;;;;3.47;2.70;;;17.00;91.20;;;;;;5012764;28;20094;-56
2021/05/26 07:30:01;;;;;;;4.68;2.72;;;16.90;91.70;;;;;;5012605;28;20030;-55
2021/05/26 07:32:29;;;;;;;3.17;2.67;;;16.80;92.10;;;;;;5012629;28;20515;-51
2021/05/26 07:34:56;;;;;;;4.57;3.05;;;16.80;92.50;;;;;;5012455;28;20053;-54
2021/05/26 07:37:24;;;;;;;4.55;3.70;;;16.70;91.80;;;;;;4994821;28;20026;-51
2021/05/26 07:39:51;;;;;;;3.15;2.50;;;16.60;92.10;;;;;;4995085;28;20164;-51
2021/05/26 07:42:19;;;;;;;3.90;3.40;;;16.60;91.50;;;;;;5012434;28;20026;-53
2021/05/26 07:44:46;;;;;;;3.60;3.28;;;16.50;93.10;;;;;;5012463;28;20025;-53
2021/05/26 07:47:14;;;;;;;5.85;3.53;;;16.40;92.60;;;;;;5012439;28;20474;-49
2021/05/26 07:49:41;;;;;;;2.92;2.72;;;16.30;92.10;;;;;;5012368;28;20026;-53
2021/05/26 07:52:13;;;;;;;4.68;3.10;;;16.30;91.70;;;;;;5011983;28;20026;-50
2021/05/26 07:54:40;;;;;;;4.57;3.03;;;16.30;92.10;;;;;;5012355;28;20029;-55
2021/05/26 07:57:08;;;;;;;3.60;3.30;;;16.50;91.40;;;;;;5012257;28;20026;-54
2021/05/26 07:59:35;;;;;;;4.30;3.55;;;16.40;92.00;;;;;;5012200;28;20522;-53
2021/05/26 08:02:02;;;;;;;3.40;3.10;;;16.30;92.10;;;;;;5012426;28;20443;-51
2021/05/26 08:04:30;;;;;;;3.95;2.63;;;16.30;91.80;;;;;;5012240;28;20021;-54
2021/05/26 08:06:57;;;;;;;4.00;2.55;;;16.40;91.20;;;;;;5012374;28;20014;-55
2021/05/26 08:09:24;;;;;;;3.50;2.40;;;16.50;91.40;;;;;;5012322;28;20541;-53
2021/05/26 08:11:52;;;;;;;4.03;2.85;;;16.50;91.20;;;;;;5014465;28;20022;-54
2021/05/26 08:14:19;;;;;;;3.30;3.00;;;16.40;91.50;;;;;;5015704;28;20052;-54
2021/05/26 08:16:46;;;;;;;5.15;3.47;;;16.40;92.00;;;;;;5015139;28;20026;-52
2021/05/26 08:19:14;;;;;;;2.83;2.70;;;16.30;91.70;;;;;;5015634;28;20026;-52
2021/05/26 08:21:41;;;;;;;4.72;3.13;;;16.40;91.80;;;;;;5015583;28;20060;-54
2021/05/26 08:24:09;;;;;;;3.47;3.17;;;16.40;91.80;;;;;;5015651;28;20018;-53
2021/05/26 08:26:36;;;;;;;5.75;3.20;;;16.30;92.00;;;;;;5015522;28;20104;-52
2021/05/26 08:29:04;;;;;;;3.47;2.97;;;16.20;92.30;;;;;;5015607;28;20021;-52
2021/05/26 08:31:32;;;;;;;4.03;2.80;;;16.30;91.80;;;;;;5015356;28;20033;-50
2021/05/26 08:34:00;;;;;;;3.72;3.22;;;16.20;92.00;;;;;;5015745;28;20072;-52
2021/05/26 08:36:27;;;;;;;3.17;2.70;;;16.20;91.80;;;;;;5015224;28;20033;-53
2021/05/26 08:38:54;;;;;;;5.00;3.55;;;16.20;91.60;;;;;;5015452;28;20061;-53
2021/05/26 08:41:23;;;;;;;4.72;3.40;;;16.10;91.70;;;;;;5015614;28;20022;-53
2021/05/26 08:43:51;;;;;;;4.90;3.40;;;16.20;91.80;;;;;;5015174;28;20026;-53
2021/05/26 08:46:19;;;;;;;3.65;3.33;;;16.10;91.90;;;;;;5015144;28;20026;-52
2021/05/26 08:48:48;;;;;;;4.03;3.63;;;16.00;92.00;;;;;;5015316;28;20487;-53
2021/05/26 08:51:18;;;;;;;3.13;2.92;;;16.00;91.70;;;;;;5015118;28;20135;-54
2021/05/26 08:53:45;;;;;;;3.42;3.10;;;16.00;91.70;;;;;;4997519;28;20067;-51
2021/05/26 08:56:12;;;;;;;4.78;2.80;;;15.80;92.10;;;;;;5014879;28;20502;-54
2021/05/26 08:58:43;;;;;;;3.33;2.80;;;15.70;91.90;;;;;;5014603;28;20066;-53
2021/05/26 09:01:11;;;;;;;4.70;2.70;;;15.60;92.30;;;;;;5014741;28;20069;-52
2021/05/26 09:03:38;;;;;;;2.83;2.63;;;15.60;91.60;;;;;;5014900;28;20438;-51
2021/05/26 09:06:11;;;;;;;10.32;2.70;;;15.60;91.50;;;;;;5014858;28;20383;-54
2021/05/26 09:08:50;;;;;;;4.43;2.70;;;15.60;91.20;;;;;;5015155;28;20030;-52
2021/05/26 09:11:30;;;;;;;4.75;2.80;;;15.50;91.40;;;;;;5014640;28;20034;-55
2021/05/26 09:13:58;;;;;;;3.08;2.60;;;15.60;92.20;;;;;;5014873;28;20030;-53
2021/05/26 09:16:26;;;;;;;5.25;2.70;;;15.60;91.60;;;;;;5014633;28;20101;-53
2021/05/26 09:19:01;;;;;;;6.35;2.65;;;15.50;91.80;;;;;;5014651;28;20044;-55
2021/05/26 09:21:52;;;;;;;2.90;2.20;;;15.50;91.40;;;;;;5014315;28;20018;-53
2021/05/26 09:24:22;;;;;;;2.90;2.60;;;15.50;91.90;;;;;;5014476;28;20050;-55
2021/05/26 09:26:55;;;;;;;2.30;2.20;;;15.30;91.60;;;;;;5014399;28;20056;-54
2021/05/26 09:29:32;;;;;;;2.60;2.30;;;15.50;91.40;;;;;;5014118;28;20379;-53
2021/05/26 09:32:22;;;;;;;3.67;2.67;;;15.50;92.60;;;;;;5014115;28;20049;-52
2021/05/26 09:34:54;;;;;;;3.35;2.65;;;15.50;91.80;;;;;;5014024;28;20026;-52
2021/05/26 09:37:32;;;;;;;4.10;2.50;;;15.50;94.00;;;;;;5014134;28;20038;-53
2021/05/26 09:40:10;;;;;;;3.22;2.70;;;15.40;91.90;;;;;;4996588;28;20160;-51
2021/05/26 09:42:41;;;;;;;5.28;3.13;;;15.30;92.10;;;;;;5013960;28;20033;-52
2021/05/26 09:45:09;;;;;;;;;;;15.30;92.70;;;;;;4996719;28;20429;-51
2021/05/26 09:47:37;;;;;;;2.63;2.30;;;15.30;91.50;;;;;;5014242;28;19910;-53
2021/05/26 09:50:27;;;;;;;2.50;2.30;;;15.40;91.40;;;;;;5013848;28;20391;-53
2021/05/26 09:53:00;;;;;;;2.78;2.05;;;15.40;92.30;;;;;;5013732;28;20546;-53
2021/05/26 09:55:35;;;;;;;3.17;2.92;;;15.30;92.10;;;;;;5013838;28;20025;-54
2021/05/26 09:58:08;;;;;;;3.90;2.60;;;15.40;91.10;;;;;;5013416;28;20022;-54
2021/05/26 10:00:37;;;;;;;2.88;2.33;;;15.40;91.50;;;;;;5013818;28;20036;-54
2021/05/26 10:03:05;;;;;;;2.50;2.30;;;15.30;90.80;;;;;;5013632;28;20022;-53
2021/05/26 10:05:34;;;;;;;2.50;2.30;;;15.30;90.70;;;;;;5013543;28;20168;-53
2021/05/26 10:08:12;;;;;;;4.30;2.53;;;15.20;91.20;;;;;;4995982;28;20022;-52
2021/05/26 10:10:46;;;;;;;4.45;2.63;;;15.20;91.00;;;;;;5013480;28;20111;-51
2021/05/26 10:13:14;;;;;;;2.95;2.75;;;15.10;91.40;;;;;;5013669;28;20486;-53
2021/05/26 10:15:43;;;;;;;2.50;2.30;;;15.00;91.30;;;;;;5013271;28;20036;-53
2021/05/26 10:18:11;;;;;;;3.28;2.70;;;15.10;91.30;;;;;;5013334;28;20128;-53
2021/05/26 10:20:43;;;;;;;3.15;2.85;;;15.00;91.30;;;;;;5013167;28;20033;-49
2021/05/26 10:23:19;;;;;;;2.83;2.60;;;15.10;91.30;;;;;;5013239;28;20022;-55
2021/05/26 10:25:48;;;;;;;3.85;3.22;;;15.00;91.50;;;;;;5013489;28;20145;-55
2021/05/26 10:28:32;;;;;;;4.93;2.72;;;14.90;91.60;;;;;;5013118;28;20483;-55
2021/05/26 10:31:01;;;;;;;3.25;3.05;;;14.90;91.60;;;;;;5013219;28;20041;-54
2021/05/26 10:33:44;;;;;;;2.90;2.70;;;14.90;91.50;;;;;;5012761;28;20037;-54
2021/05/26 10:36:12;;;;;;;2.80;2.60;;;15.10;91.40;;;;;;5012921;28;20033;-51
2021/05/26 10:39:01;;;;;;;3.25;2.75;;;15.00;91.40;;;;;;5012907;28;20065;-51
2021/05/26 10:41:57;;;;;;;2.92;2.58;;;14.90;91.60;;;;;;5013190;28;20018;-55
2021/05/26 10:45:04;;;;;;;4.65;3.15;;;14.90;91.60;;;;;;5012841;28;20044;-53
2021/05/26 10:47:38;;;;;;;3.53;2.50;;;14.80;91.80;;;;;;5010971;28;20091;-52
2021/05/26 10:50:20;;;;;;;3.13;2.70;;;14.80;91.90;;;;;;5013006;28;20051;-54
2021/05/26 10:52:56;;;;;;;5.88;2.78;;;14.80;92.00;;;;;;5012912;28;20399;-53
2021/05/26 10:55:38;;;;;;;7.10;2.55;;;14.80;92.00;;;;;;5012876;28;20026;-56
2021/05/26 10:58:23;;;;;;;2.95;2.67;;;14.80;92.20;;;;;;5012492;28;20041;-55
2021/05/26 11:01:10;;;;;;;3.65;2.50;;;14.80;92.10;;;;;;5012834;28;20034;-53
2021/05/26 11:03:43;;;;;;;2.28;2.08;;;14.70;92.40;;;;;;5012728;28;20030;-53
2021/05/26 11:06:19;;;;;;;3.53;2.50;;;14.60;92.40;;;;;;5012763;28;20154;-55
2021/05/26 11:08:48;;;;;;;2.90;2.50;;;14.60;92.60;;;;;;5012667;28;20093;-55
2021/05/26 11:11:29;;;;;;;3.78;2.38;;;14.60;92.70;;;;;;5012749;28;20056;-54
2021/05/26 11:14:23;;;;;;;3.92;2.72;;;14.60;92.70;;;;;;5012583;28;20084;-56
2021/05/26 11:16:51;;;;;;;2.97;2.45;;;14.50;93.00;;;;;;5012984;28;20018;-52
2021/05/26 11:19:26;;;;;;;2.95;2.42;;;14.40;93.10;;;;;;5012666;28;20030;-55
2021/05/26 11:22:02;;;;;;;3.10;2.80;;;14.30;93.20;;;;;;5012837;28;20032;-48
2021/05/26 11:24:32;;;;;;;5.20;2.92;;;14.30;93.30;;;;;;5005071;28;20022;-51
2021/05/26 11:27:01;;;;;;;2.78;2.60;;;14.20;93.50;;;;;;5012613;28;20068;-50
2021/05/26 11:29:33;;;;;;;5.43;3.05;;;14.20;93.40;;;;;;5012742;28;20034;-50
2021/05/26 11:32:20;;;;;;;4.63;2.90;;;14.20;93.70;;;;;;5012746;28;20391;-53
2021/05/26 11:34:50;;;;;;;4.18;3.38;;;14.20;93.50;;;;;;5012485;28;20018;-53
2021/05/26 11:37:40;;;;;;;3.83;3.08;;;14.20;93.80;;;;;;5012245;28;20390;-54
2021/05/26 11:40:28;;;;;;;5.68;3.08;;;14.10;93.70;;;;;;5012473;28;20022;-54
2021/05/26 11:42:57;;;;;;;5.50;2.80;;;14.10;93.70;;;;;;5012578;28;20529;-50
2021/05/26 11:45:24;;;;;;;4.65;3.33;;;14.10;93.80;;;;;;5013114;28;20286;-51
2021/05/26 11:47:58;;;;;;;3.90;3.00;;;14.20;93.70;;;;;;5016252;28;20038;-55
2021/05/26 11:50:28;;;;;;;4.20;2.80;;;14.20;93.70;;;;;;5008462;28;20112;-54
2021/05/26 11:53:01;;;;;;;3.55;3.25;;;14.10;93.80;;;;;;5016134;28;20026;-54
2021/05/26 11:55:29;;;;;;;3.30;3.00;;;14.00;94.40;;;;;;5016299;28;20030;-53
2021/05/26 11:57:57;;;;;;;2.47;2.25;;;13.90;94.50;;;;;;5015978;28;20534;-54
2021/05/26 12:00:27;;;;;;;3.38;2.92;;;13.90;94.30;;;;;;5016090;28;20022;-54
2021/05/26 12:03:05;;;;;;;3.30;3.10;;;13.90;94.20;;;;;;5016201;28;20029;-53
2021/05/26 12:05:52;;;;;;;3.63;3.10;;;13.90;94.50;;;;;;5015679;28;20815;-52
2021/05/26 12:08:26;;;;;;;3.10;2.80;;;13.80;94.60;;;;;;5015838;28;20026;-53
2021/05/26 12:10:58;;;;;;;3.53;2.92;;;13.80;94.60;;;;;;5016017;28;20050;-55
2021/05/26 12:13:38;;;;;;;3.97;3.10;;;13.70;94.80;;;;;;5015878;28;20025;-51
2021/05/26 12:16:07;;;;;;;4.07;3.67;;;13.70;94.90;;;;;;5015804;28;20037;-55
2021/05/26 12:18:35;;;;;;;4.05;3.65;;;13.70;95.00;;;;;;5015885;28;20068;-53
2021/05/26 12:21:04;;;;;;;5.30;3.45;;;13.70;95.10;;;;;;5015621;28;20025;-51
2021/05/26 12:23:37;;;;;;;7.70;4.13;;;13.50;95.20;;;;;;5015707;28;20029;-50
2021/05/26 12:26:25;;;;;;;4.13;3.20;;;13.50;95.40;;;;;;5015812;28;20033;-54
2021/05/26 12:28:57;;;;;;;3.55;3.25;;;13.60;95.30;;;;;;5015450;28;20029;-50
2021/05/26 12:31:29;;;;;;;4.50;3.70;;;13.50;95.40;;;;;;5015489;28;20053;-52
2021/05/26 12:33:57;;;;;;;4.20;3.30;;;13.60;95.80;;;;;;5015362;28;20030;-53
2021/05/26 12:36:27;;;;;;;4.00;3.60;;;13.50;95.50;;;;;;5015491;28;20550;-54
2021/05/26 12:39:07;;;;;;;3.53;3.17;;;13.60;95.50;;;;;;5015372;28;20037;-56
2021/05/26 12:41:36;;;;;;;3.88;3.17;;;13.50;95.60;;;;;;5015611;28;20105;-52
2021/05/26 12:44:09;;;;;;;4.70;3.33;;;13.60;95.60;;;;;;5015242;28;20065;-52
2021/05/26 12:46:48;;;;;;;4.38;3.22;;;13.50;95.80;;;;;;5015375;28;20033;-56
2021/05/26 12:49:32;;;;;;;4.47;3.13;;;13.40;95.90;;;;;;5015468;28;20061;-52
2021/05/26 12:52:01;;;;;;;4.45;3.45;;;13.40;95.90;;;;;;5015211;28;20530;-52
2021/05/26 12:54:39;;;;;;;6.50;3.22;;;13.30;96.20;;;;;;5015212;28;20073;-52
2021/05/26 12:57:07;;;;;;;4.07;3.50;;;13.30;96.30;;;;;;5014308;28;20026;-50
2021/05/26 12:59:36;;;;;;;5.38;3.60;;;13.30;96.10;;;;;;5014864;28;20579;-54
2021/05/26 13:02:05;;;;;;;3.60;3.15;;;13.30;96.30;;;;;;5014926;28;20076;-50